Time;durP1;ratioP1;P1;durP2;ratioP2;P2;SDS_P1;SDS_P2;PMS_P1;PMS_P2;Temp;Humidity;BMP_temperature;BMP_pressure;BME280_temperature;BME280_humidity;BME280_pressure;Samples;Min_cycle;Max_cycle;Signal;HPM_P1;HPM_P2
2021/03/15 00:01:59;;;;;;;1.00;0.50;;;5.50;99.90;;;;;;5013155;28;20384;-76
2021/03/15 00:04:25;;;;;;;1.80;0.60;;;4.90;99.90;;;;;;5020285;28;20419;-73
2021/03/15 00:06:50;;;;;;;1.58;0.90;;;5.70;99.90;;;;;;5009999;28;20852;-73
2021/03/15 00:09:16;;;;;;;0.45;0.32;;;5.80;99.90;;;;;;5012671;28;20397;-74
2021/03/15 00:11:41;;;;;;;1.23;0.50;;;6.20;99.90;;;;;;5010689;28;20794;-73
2021/03/15 00:14:07;;;;;;;0.50;0.50;;;5.60;99.90;;;;;;5009696;28;20777;-73
2021/03/15 00:16:33;;;;;;;1.00;0.77;;;5.30;99.90;;;;;;5005672;28;20385;-77
2021/03/15 00:18:58;;;;;;;1.77;0.60;;;5.80;99.90;;;;;;5011067;28;20468;-73
2021/03/15 00:21:24;;;;;;;0.68;0.68;;;5.80;99.90;;;;;;5012534;28;20531;-73
2021/03/15 00:23:50;;;;;;;1.05;0.52;;;5.90;99.90;;;;;;5011635;28;20466;-72
2021/03/15 00:26:15;;;;;;;1.98;0.70;;;6.40;99.90;;;;;;5011138;28;20401;-73
2021/03/15 00:28:41;;;;;;;2.20;0.70;;;6.50;99.90;;;;;;5010824;28;20385;-72
2021/03/15 00:31:06;;;;;;;0.90;0.60;;;5.20;99.90;;;;;;5011225;28;20737;-72
2021/03/15 00:33:32;;;;;;;1.50;0.90;;;5.50;99.90;;;;;;5010719;28;20896;-71
2021/03/15 00:35:58;;;;;;;1.50;0.77;;;5.90;99.90;;;;;;5009529;28;20396;-73
2021/03/15 00:38:23;;;;;;;3.73;0.80;;;5.90;99.90;;;;;;5011742;28;20403;-73
2021/03/15 00:40:49;;;;;;;2.40;1.30;;;5.90;99.90;;;;;;5009752;28;20393;-76
2021/03/15 00:43:15;;;;;;;1.90;1.00;;;5.20;99.90;;;;;;5012065;28;20408;-72
2021/03/15 00:45:40;;;;;;;3.50;0.90;;;5.60;99.90;;;;;;5010286;28;20866;-73
2021/03/15 00:48:06;;;;;;;1.42;1.05;;;5.10;99.90;;;;;;5012989;28;20392;-74
2021/03/15 00:50:40;;;;;;;3.05;0.95;;;4.80;99.90;;;;;;5009764;28;20931;-74
2021/03/15 00:53:06;;;;;;;2.30;1.00;;;5.90;99.90;;;;;;5005478;28;20389;-72
2021/03/15 00:55:31;;;;;;;1.60;0.90;;;5.70;99.90;;;;;;5009451;28;20373;-73
2021/03/15 00:57:57;;;;;;;2.15;0.70;;;4.90;99.90;;;;;;5003843;28;20869;-73
2021/03/15 01:00:29;;;;;;;1.00;0.80;;;5.00;99.90;;;;;;5009170;28;20470;-74
2021/03/15 01:02:55;;;;;;;2.30;1.17;;;5.90;99.90;;;;;;5007819;28;20420;-73
2021/03/15 01:05:33;;;;;;;1.10;0.80;;;5.30;99.90;;;;;;5009526;28;21075;-72
2021/03/15 01:07:59;;;;;;;2.70;1.00;;;5.20;99.90;;;;;;5009135;28;20373;-73
2021/03/15 01:10:27;;;;;;;0.88;0.75;;;6.30;99.90;;;;;;5008437;28;20391;-73
2021/03/15 01:12:53;;;;;;;1.77;1.00;;;6.00;99.90;;;;;;5009233;28;20397;-73
2021/03/15 01:15:21;;;;;;;1.50;1.20;;;6.40;99.90;;;;;;5009143;28;20384;-73
2021/03/15 01:17:48;;;;;;;1.10;0.90;;;5.10;99.90;;;;;;5011018;28;20387;-73
2021/03/15 01:20:14;;;;;;;1.42;1.17;;;5.80;99.90;;;;;;5009480;28;20427;-72
2021/03/15 01:22:40;;;;;;;2.30;1.10;;;5.00;99.90;;;;;;5010101;28;20500;-71
2021/03/15 01:25:06;;;;;;;2.10;1.30;;;5.40;99.90;;;;;;5005688;28;20496;-75
2021/03/15 01:27:32;;;;;;;2.60;1.30;;;5.20;99.90;;;;;;5018179;28;20403;-74
2021/03/15 01:29:59;;;;;;;1.75;1.30;;;6.30;99.90;;;;;;5021077;28;20449;-71
2021/03/15 01:32:24;;;;;;;2.50;1.38;;;5.10;99.90;;;;;;5008579;28;20429;-72
2021/03/15 01:34:50;;;;;;;1.80;1.40;;;5.60;99.90;;;;;;5009143;28;20389;-71
2021/03/15 01:37:16;;;;;;;1.47;1.37;;;5.60;99.90;;;;;;5007715;28;20408;-73
2021/03/15 01:39:42;;;;;;;2.00;1.60;;;5.30;99.90;;;;;;5003095;28;20720;-71
2021/03/15 01:42:08;;;;;;;1.63;1.25;;;6.00;99.90;;;;;;5008698;28;20416;-71
2021/03/15 01:44:34;;;;;;;3.30;1.42;;;5.10;99.90;;;;;;5012576;28;20377;-71
2021/03/15 01:47:01;;;;;;;2.08;1.33;;;6.40;99.90;;;;;;5008328;28;20535;-74
2021/03/15 01:49:26;;;;;;;1.38;1.25;;;4.90;99.90;;;;;;5005062;28;20418;-75
2021/03/15 01:51:52;;;;;;;3.20;1.50;;;5.60;99.90;;;;;;5008165;28;20420;-71
2021/03/15 01:54:20;;;;;;;2.33;1.70;;;6.40;99.90;;;;;;5009085;28;20392;-72
2021/03/15 01:56:46;;;;;;;1.80;1.30;;;5.70;99.90;;;;;;5007976;28;20524;-70
2021/03/15 01:59:16;;;;;;;2.30;1.60;;;7.20;99.90;;;;;;5007786;28;20389;-74
2021/03/15 02:01:46;;;;;;;2.70;1.50;;;5.30;99.90;;;;;;5008507;28;20392;-71
2021/03/15 02:04:11;;;;;;;1.95;1.05;;;5.50;99.90;;;;;;5009091;28;20489;-71
2021/03/15 02:06:37;;;;;;;2.72;1.50;;;6.60;99.90;;;;;;5010342;28;20424;-71
2021/03/15 02:09:04;;;;;;;3.90;1.48;;;6.50;99.90;;;;;;5010414;28;20428;-74
2021/03/15 02:12:01;;;;;;;1.33;1.20;;;5.20;99.90;;;;;;5007279;28;20487;-71
2021/03/15 02:14:51;;;;;;;1.70;1.20;;;5.00;99.90;;;;;;5011166;28;20391;-72
2021/03/15 02:17:25;;;;;;;3.10;1.20;;;5.20;99.90;;;;;;5008673;28;20423;-72
2021/03/15 02:19:56;;;;;;;3.95;1.10;;;5.20;99.90;;;;;;5011123;28;20392;-72
2021/03/15 02:22:30;;;;;;;1.60;0.88;;;5.20;99.90;;;;;;5026646;28;20393;-72
2021/03/15 02:25:19;;;;;;;3.10;1.40;;;5.20;99.90;;;;;;5018939;28;20713;-71
2021/03/15 02:27:51;;;;;;;2.75;1.10;;;5.70;99.90;;;;;;5015873;28;20405;-72
2021/03/15 02:30:46;;;;;;;1.85;1.48;;;5.40;99.90;;;;;;5026232;28;20457;-72
2021/03/15 02:33:35;;;;;;;1.15;1.00;;;5.30;99.90;;;;;;5001650;28;20393;-72
2021/03/15 02:36:05;;;;;;;2.25;1.40;;;5.30;99.90;;;;;;5026726;28;20742;-76
2021/03/15 02:38:35;;;;;;;1.70;1.40;;;5.30;99.90;;;;;;5015254;28;20936;-72
2021/03/15 02:41:03;;;;;;;4.00;1.60;;;5.80;99.90;;;;;;5021829;28;20426;-75
2021/03/15 02:43:32;;;;;;;1.20;1.10;;;5.30;99.90;;;;;;5023105;28;20411;-69
2021/03/15 02:46:05;;;;;;;1.60;1.30;;;5.80;99.90;;;;;;5014178;28;20466;-70
2021/03/15 02:48:35;;;;;;;3.75;1.70;;;6.40;99.90;;;;;;5025902;28;20392;-69
2021/03/15 02:51:01;;;;;;;1.60;1.50;;;5.40;99.90;;;;;;5019436;28;20433;-73
2021/03/15 02:53:28;;;;;;;4.40;1.85;;;5.70;99.90;;;;;;5013357;28;20399;-71
2021/03/15 02:56:01;;;;;;;3.33;1.67;;;6.10;99.90;;;;;;5022802;28;20409;-71
2021/03/15 02:58:28;;;;;;;2.38;1.70;;;5.70;99.90;;;;;;4999326;28;20493;-69
2021/03/15 03:00:57;;;;;;;1.70;1.60;;;5.80;99.90;;;;;;5022530;28;20396;-69
2021/03/15 03:03:24;;;;;;;3.70;2.20;;;5.50;99.90;;;;;;5021394;28;20406;-69
2021/03/15 03:05:51;;;;;;;2.53;1.75;;;5.80;99.90;;;;;;5015288;28;20459;-68
2021/03/15 03:08:19;;;;;;;3.72;2.20;;;5.80;99.90;;;;;;5026052;28;20392;-68
2021/03/15 03:10:47;;;;;;;2.10;1.90;;;5.90;99.90;;;;;;5016705;28;20405;-69
2021/03/15 03:13:13;;;;;;;5.10;2.00;;;5.90;99.90;;;;;;5019299;28;20389;-69
2021/03/15 03:15:40;;;;;;;4.90;2.10;;;5.60;99.90;;;;;;5024271;28;20399;-69
2021/03/15 03:18:07;;;;;;;4.77;2.10;;;5.30;99.90;;;;;;5013067;28;20478;-70
2021/03/15 03:20:33;;;;;;;3.67;2.13;;;5.90;99.90;;;;;;5024868;28;20466;-69
2021/03/15 03:23:04;;;;;;;3.58;1.98;;;6.20;99.90;;;;;;5018565;28;20415;-70
2021/03/15 03:25:31;;;;;;;2.20;2.00;;;5.10;99.90;;;;;;5017255;28;20818;-69
2021/03/15 03:27:57;;;;;;;4.35;1.80;;;5.40;99.90;;;;;;5030951;28;20689;-69
2021/03/15 03:30:34;;;;;;;4.18;2.17;;;5.80;99.90;;;;;;5001130;28;20391;-69
2021/03/15 03:33:05;;;;;;;2.72;1.80;;;5.10;99.90;;;;;;5025346;28;20467;-69
2021/03/15 03:35:30;;;;;;;4.20;1.80;;;4.90;99.90;;;;;;5021538;28;20381;-69
2021/03/15 03:37:57;;;;;;;2.78;2.00;;;5.70;99.90;;;;;;5025421;28;20495;-69
2021/03/15 03:40:23;;;;;;;2.55;1.55;;;5.50;99.90;;;;;;5000778;28;20394;-69
2021/03/15 03:42:49;;;;;;;3.55;1.50;;;5.50;99.90;;;;;;5026690;28;20440;-69
2021/03/15 03:45:16;;;;;;;3.13;1.77;;;5.60;99.90;;;;;;5024096;28;20383;-69
2021/03/15 03:47:42;;;;;;;2.63;1.50;;;5.40;99.90;;;;;;5019610;28;20808;-69
2021/03/15 03:50:20;;;;;;;3.50;1.30;;;5.40;99.90;;;;;;5029705;28;20390;-69
2021/03/15 03:53:16;;;;;;;3.30;1.50;;;5.90;99.90;;;;;;5020388;28;20413;-69
2021/03/15 03:55:47;;;;;;;2.87;1.47;;;4.90;99.90;;;;;;5016933;28;20430;-70
2021/03/15 03:58:17;;;;;;;4.10;1.70;;;4.90;99.90;;;;;;5029766;28;20383;-70
2021/03/15 04:00:45;;;;;;;3.40;1.40;;;5.40;99.90;;;;;;5019974;28;20458;-70
2021/03/15 04:03:18;;;;;;;3.22;1.45;;;5.10;99.90;;;;;;5022708;28;20477;-70
2021/03/15 04:05:52;;;;;;;3.33;1.33;;;5.20;99.90;;;;;;5028457;28;20387;-70
2021/03/15 04:08:26;;;;;;;4.63;1.43;;;5.00;99.90;;;;;;5031573;28;20515;-70
2021/03/15 04:10:54;;;;;;;3.03;1.40;;;5.50;99.90;;;;;;5026085;28;20464;-71
2021/03/15 04:13:24;;;;;;;2.80;1.73;;;5.70;99.90;;;;;;5023911;28;20860;-71
2021/03/15 04:15:50;;;;;;;2.72;1.50;;;5.00;99.90;;;;;;5017814;28;20484;-70
2021/03/15 04:18:21;;;;;;;2.60;1.40;;;6.00;99.90;;;;;;5029372;28;20490;-70
2021/03/15 04:20:50;;;;;;;1.83;1.70;;;5.00;99.90;;;;;;5020370;28;20391;-69
2021/03/15 04:23:22;;;;;;;2.13;1.70;;;6.00;99.90;;;;;;5021323;28;20923;-69
2021/03/15 04:25:50;;;;;;;1.58;1.20;;;5.20;99.90;;;;;;5028818;28;20431;-71
2021/03/15 04:28:16;;;;;;;2.50;1.20;;;5.40;99.90;;;;;;5015963;28;20397;-70
2021/03/15 04:30:43;;;;;;;2.92;1.20;;;6.00;99.90;;;;;;5026755;28;20388;-70
2021/03/15 04:33:09;;;;;;;1.70;0.90;;;5.90;99.90;;;;;;5002733;28;20722;-69
2021/03/15 04:35:37;;;;;;;2.53;1.20;;;5.00;99.90;;;;;;5026367;28;20384;-69
2021/03/15 04:38:05;;;;;;;3.50;1.10;;;6.00;99.90;;;;;;5015578;28;20821;-72
2021/03/15 04:40:32;;;;;;;2.83;0.93;;;5.00;99.90;;;;;;5028256;28;20427;-68
2021/03/15 04:43:00;;;;;;;1.60;0.70;;;4.70;99.90;;;;;;5036185;28;20425;-68
2021/03/15 04:45:31;;;;;;;2.70;0.85;;;5.10;99.90;;;;;;5020116;28;20388;-68
2021/03/15 04:48:03;;;;;;;2.30;1.10;;;5.10;99.90;;;;;;5029229;28;20429;-68
2021/03/15 04:50:30;;;;;;;1.60;0.80;;;5.00;99.90;;;;;;5002180;28;20424;-68
2021/03/15 04:52:56;;;;;;;1.90;0.77;;;4.70;99.90;;;;;;5024552;28;20385;-68
2021/03/15 04:55:25;;;;;;;2.80;1.00;;;5.70;99.90;;;;;;5023621;28;20629;-68
2021/03/15 04:57:55;;;;;;;1.63;0.80;;;4.90;99.90;;;;;;5027072;28;20881;-68
2021/03/15 05:00:22;;;;;;;1.30;0.80;;;4.80;99.90;;;;;;5028200;28;20407;-68
2021/03/15 05:02:49;;;;;;;2.55;0.80;;;4.90;99.90;;;;;;5019692;28;20414;-68
2021/03/15 05:05:16;;;;;;;2.10;0.90;;;5.40;99.90;;;;;;5021422;28;20381;-68
2021/03/15 05:07:44;;;;;;;5.20;1.00;;;5.00;99.90;;;;;;5027071;28;20803;-68
2021/03/15 05:10:12;;;;;;;1.30;1.00;;;5.70;99.90;;;;;;5015755;28;20857;-68
2021/03/15 05:12:39;;;;;;;1.90;0.68;;;4.80;99.90;;;;;;5027011;28;20741;-68
2021/03/15 05:15:07;;;;;;;1.08;0.95;;;5.90;99.90;;;;;;5021217;28;20739;-69
2021/03/15 05:17:37;;;;;;;1.10;0.60;;;4.90;99.90;;;;;;5019443;28;20395;-68
2021/03/15 05:20:09;;;;;;;0.85;0.57;;;5.20;99.90;;;;;;5028426;28;20482;-73
2021/03/15 05:22:37;;;;;;;3.10;0.90;;;4.90;99.90;;;;;;5017872;28;20870;-68
2021/03/15 05:25:05;;;;;;;0.70;0.40;;;4.80;99.90;;;;;;5023006;28;20399;-73
2021/03/15 05:27:32;;;;;;;1.10;0.50;;;4.70;99.90;;;;;;5024890;28;20502;-68
2021/03/15 05:30:04;;;;;;;2.70;0.70;;;5.10;99.90;;;;;;5015958;28;20397;-69
2021/03/15 05:32:32;;;;;;;0.82;0.50;;;5.70;99.90;;;;;;5023198;28;20395;-69
2021/03/15 05:35:00;;;;;;;1.48;0.70;;;6.30;99.90;;;;;;5023880;28;20385;-68
2021/03/15 05:37:27;;;;;;;0.80;0.68;;;5.40;99.90;;;;;;5002654;28;20412;-69
2021/03/15 05:39:53;;;;;;;1.30;0.50;;;5.80;99.90;;;;;;5003799;28;20494;-71
2021/03/15 05:42:21;;;;;;;0.52;0.40;;;5.20;99.90;;;;;;5001768;28;20427;-69
2021/03/15 05:45:25;;;;;;;0.60;0.40;;;4.90;99.90;;;;;;4999647;28;21618;-70
2021/03/15 05:48:02;;;;;;;1.70;0.50;;;5.00;99.90;;;;;;4996105;28;21608;-68
2021/03/15 05:50:53;;;;;;;0.60;0.40;;;5.90;99.90;;;;;;4998589;28;20583;-70
2021/03/15 05:53:48;;;;;;;1.27;0.50;;;5.10;99.90;;;;;;4997714;28;20439;-70
2021/03/15 05:56:22;;;;;;;0.40;0.30;;;4.90;99.90;;;;;;5007887;28;20904;-69
2021/03/15 05:59:02;;;;;;;0.90;0.40;;;5.10;99.90;;;;;;5036635;28;20402;-69
2021/03/15 06:01:56;;;;;;;1.10;0.50;;;5.20;99.90;;;;;;5016161;28;20422;-69
2021/03/15 06:04:42;;;;;;;1.20;0.30;;;5.10;99.90;;;;;;5013175;28;20415;-68
2021/03/15 06:07:11;;;;;;;1.25;0.60;;;5.10;99.90;;;;;;5012287;28;20436;-72
2021/03/15 06:10:10;;;;;;;0.93;0.80;;;5.00;99.90;;;;;;5009012;28;20397;-71
2021/03/15 06:12:49;;;;;;;0.80;0.43;;;5.80;99.90;;;;;;5000485;28;20407;-68
2021/03/15 06:15:17;;;;;;;1.00;0.70;;;4.60;99.90;;;;;;5018890;28;20384;-68
2021/03/15 06:17:44;;;;;;;1.30;0.50;;;4.50;99.90;;;;;;5024622;28;20437;-68
2021/03/15 06:20:13;;;;;;;0.70;0.45;;;5.50;99.90;;;;;;5012968;28;20485;-69
2021/03/15 06:22:39;;;;;;;1.10;0.60;;;4.30;99.90;;;;;;5025448;28;20424;-71
2021/03/15 06:25:05;;;;;;;1.17;0.50;;;4.60;99.90;;;;;;5019467;28;20387;-71
2021/03/15 06:27:32;;;;;;;0.70;0.50;;;4.30;99.90;;;;;;5018182;28;20397;-68
2021/03/15 06:29:58;;;;;;;1.40;0.70;;;4.80;99.90;;;;;;5027108;28;20790;-69
2021/03/15 06:32:27;;;;;;;0.75;0.52;;;5.10;99.90;;;;;;5001899;28;20504;-68
2021/03/15 06:34:56;;;;;;;0.80;0.70;;;5.00;99.90;;;;;;5010430;28;20397;-69
2021/03/15 06:37:23;;;;;;;0.50;0.40;;;4.30;99.90;;;;;;5010276;28;20480;-67
2021/03/15 06:39:50;;;;;;;0.98;0.50;;;3.90;99.90;;;;;;5010949;28;20919;-67
2021/03/15 06:42:17;;;;;;;0.52;0.40;;;4.80;99.90;;;;;;5010797;28;20392;-68
2021/03/15 06:44:43;;;;;;;1.20;0.40;;;4.60;99.90;;;;;;5011093;28;20458;-67
2021/03/15 06:47:09;;;;;;;0.60;0.60;;;5.20;99.90;;;;;;5010725;28;20936;-69
2021/03/15 06:49:35;;;;;;;0.60;0.50;;;4.60;99.90;;;;;;5026319;28;20396;-70
2021/03/15 06:52:07;;;;;;;0.50;0.40;;;4.30;99.90;;;;;;5010066;28;20392;-73
2021/03/15 06:54:33;;;;;;;0.70;0.50;;;4.20;99.90;;;;;;5002193;28;20477;-69
2021/03/15 06:57:11;;;;;;;0.50;0.40;;;4.20;99.90;;;;;;5000649;28;20502;-69
2021/03/15 06:59:54;;;;;;;0.90;0.70;;;5.50;99.90;;;;;;5007802;28;20869;-69
2021/03/15 07:02:38;;;;;;;0.70;0.60;;;3.80;99.90;;;;;;5002635;28;20490;-69
2021/03/15 07:05:09;;;;;;;0.70;0.50;;;4.30;99.90;;;;;;5003844;28;21574;-74
2021/03/15 07:07:37;;;;;;;0.50;0.40;;;4.20;99.90;;;;;;5005738;28;20393;-72
2021/03/15 07:10:17;;;;;;;0.60;0.60;;;3.90;99.90;;;;;;5009195;28;20476;-73
2021/03/15 07:12:43;;;;;;;0.52;0.40;;;4.20;99.90;;;;;;5005810;28;20447;-68
2021/03/15 07:15:09;;;;;;;0.70;0.40;;;4.80;99.90;;;;;;5006781;28;20406;-71
2021/03/15 07:17:35;;;;;;;0.50;0.50;;;4.30;99.90;;;;;;4999114;28;20527;-72
2021/03/15 07:20:01;;;;;;;0.50;0.40;;;5.20;99.90;;;;;;4998024;28;20396;-69
2021/03/15 07:22:28;;;;;;;0.60;0.60;;;4.30;99.90;;;;;;4997675;28;20393;-70
2021/03/15 07:25:13;;;;;;;1.10;0.50;;;4.40;99.90;;;;;;4998934;28;20389;-71
2021/03/15 07:27:41;;;;;;;1.00;0.60;;;4.30;99.90;;;;;;4994396;28;20494;-69
2021/03/15 07:30:31;;;;;;;0.75;0.50;;;4.20;99.90;;;;;;4996648;28;20470;-73
2021/03/15 07:33:22;;;;;;;0.50;0.40;;;4.10;99.90;;;;;;4997043;28;21044;-74
2021/03/15 07:35:48;;;;;;;0.70;0.50;;;4.50;99.90;;;;;;5010441;28;20446;-73
2021/03/15 07:38:14;;;;;;;0.50;0.50;;;5.50;99.90;;;;;;4995098;28;20471;-70
2021/03/15 07:40:42;;;;;;;1.00;0.50;;;4.40;99.90;;;;;;4998561;28;20376;-70
2021/03/15 07:43:26;;;;;;;0.60;0.60;;;5.00;99.90;;;;;;4995634;28;20416;-74
2021/03/15 07:45:51;;;;;;;0.40;0.40;;;5.00;99.90;;;;;;4996552;28;20468;-70
2021/03/15 07:48:24;;;;;;;0.50;0.50;;;4.70;99.90;;;;;;4995848;28;20561;-71
2021/03/15 07:51:01;;;;;;;0.60;0.40;;;4.20;99.90;;;;;;4998021;28;20468;-75
2021/03/15 07:53:42;;;;;;;0.60;0.40;;;4.40;99.90;;;;;;4996339;28;20404;-69
2021/03/15 07:56:21;;;;;;;0.40;0.30;;;5.10;99.90;;;;;;4995572;28;20540;-74
2021/03/15 07:58:50;;;;;;;0.52;0.40;;;4.30;99.90;;;;;;4995417;28;20467;-71
2021/03/15 08:01:19;;;;;;;0.50;0.40;;;4.20;99.90;;;;;;4997057;28;20411;-74
2021/03/15 08:03:44;;;;;;;0.70;0.40;;;4.50;99.90;;;;;;4996739;28;20428;-70
2021/03/15 08:06:12;;;;;;;0.40;0.40;;;5.10;99.90;;;;;;4997523;28;21274;-72
2021/03/15 08:08:39;;;;;;;0.90;0.50;;;4.40;99.90;;;;;;4997372;28;20423;-72
2021/03/15 08:11:06;;;;;;;0.60;0.40;;;4.90;99.90;;;;;;4996704;28;20389;-75
2021/03/15 08:13:42;;;;;;;0.40;0.30;;;4.10;99.90;;;;;;5001661;28;20816;-71
2021/03/15 08:16:11;;;;;;;0.40;0.30;;;5.10;99.90;;;;;;5001654;28;20504;-72
2021/03/15 08:18:40;;;;;;;0.70;0.50;;;5.30;99.90;;;;;;4998814;28;21196;-69
2021/03/15 08:21:12;;;;;;;0.40;0.30;;;4.80;99.90;;;;;;4999830;28;20465;-75
2021/03/15 08:23:46;;;;;;;2.33;0.47;;;4.80;99.90;;;;;;5001732;28;20625;-70
2021/03/15 08:26:15;;;;;;;0.60;0.60;;;4.20;99.90;;;;;;5000481;28;20776;-70
2021/03/15 08:28:43;;;;;;;0.70;0.40;;;4.70;99.90;;;;;;4999063;28;20963;-69
2021/03/15 08:31:14;;;;;;;0.50;0.30;;;4.70;99.90;;;;;;5007957;28;20460;-72
2021/03/15 08:33:40;;;;;;;0.50;0.50;;;4.20;99.90;;;;;;5002250;28;20409;-69
2021/03/15 08:36:07;;;;;;;2.13;0.50;;;4.10;99.90;;;;;;4999096;28;20443;-73
2021/03/15 08:38:34;;;;;;;0.40;0.40;;;4.30;99.90;;;;;;4998237;28;20432;-72
2021/03/15 08:41:06;;;;;;;0.70;0.40;;;4.20;99.90;;;;;;4999539;28;20392;-74
2021/03/15 08:43:39;;;;;;;2.50;0.40;;;4.60;99.90;;;;;;4998420;28;20509;-70
2021/03/15 08:46:14;;;;;;;0.70;0.40;;;5.10;99.90;;;;;;4999449;28;20408;-75
2021/03/15 08:48:39;;;;;;;0.40;0.30;;;4.50;99.90;;;;;;4998510;28;20491;-70
2021/03/15 08:51:33;;;;;;;0.40;0.30;;;4.80;99.90;;;;;;5000665;28;20385;-73
2021/03/15 08:54:07;;;;;;;0.70;0.50;;;5.20;99.90;;;;;;5001582;28;20392;-71
2021/03/15 08:56:37;;;;;;;0.80;0.30;;;4.70;99.90;;;;;;4998873;28;20508;-69
2021/03/15 08:59:04;;;;;;;0.50;0.40;;;4.70;99.90;;;;;;4998039;28;20520;-73
2021/03/15 09:01:47;;;;;;;0.60;0.40;;;5.10;99.90;;;;;;5001224;28;20397;-74
2021/03/15 09:04:47;;;;;;;0.70;0.40;;;5.40;99.90;;;;;;4999440;28;20424;-73
2021/03/15 09:07:39;;;;;;;1.20;0.30;;;4.80;99.90;;;;;;4997290;28;20478;-71
2021/03/15 09:10:23;;;;;;;0.50;0.30;;;6.10;99.90;;;;;;4999696;28;20444;-73
2021/03/15 09:13:16;;;;;;;0.40;0.30;;;4.80;99.90;;;;;;4999273;28;20432;-70
2021/03/15 09:15:42;;;;;;;0.40;0.30;;;4.80;99.90;;;;;;4993404;28;21251;-70
2021/03/15 09:18:48;;;;;;;0.50;0.30;;;5.20;99.90;;;;;;4996064;28;20459;-75
2021/03/15 09:21:23;;;;;;;0.50;0.40;;;4.80;99.90;;;;;;4998161;28;20404;-70
2021/03/15 09:23:49;;;;;;;0.40;0.30;;;6.20;99.90;;;;;;4998046;28;20427;-73
2021/03/15 09:26:24;;;;;;;0.60;0.35;;;5.90;99.90;;;;;;4999410;28;20476;-68
2021/03/15 09:28:51;;;;;;;0.50;0.40;;;5.00;99.90;;;;;;4998270;28;20409;-68
2021/03/15 09:31:17;;;;;;;0.60;0.30;;;5.20;99.90;;;;;;4997730;28;20389;-68
2021/03/15 09:33:43;;;;;;;0.40;0.30;;;5.20;99.90;;;;;;4999368;28;20393;-70
2021/03/15 09:36:09;;;;;;;0.55;0.30;;;5.30;99.90;;;;;;5002365;28;20393;-69
2021/03/15 09:38:36;;;;;;;0.60;0.40;;;5.10;99.90;;;;;;5000704;28;20413;-71
2021/03/15 09:41:05;;;;;;;1.10;0.50;;;5.20;99.90;;;;;;5002501;28;20423;-70
2021/03/15 09:43:32;;;;;;;0.90;0.57;;;5.60;99.90;;;;;;5002158;28;20425;-69
2021/03/15 09:46:00;;;;;;;0.40;0.30;;;5.20;99.90;;;;;;4998943;28;20396;-70
2021/03/15 09:48:28;;;;;;;0.50;0.40;;;5.30;99.90;;;;;;5000059;28;20391;-69
2021/03/15 09:51:03;;;;;;;0.50;0.40;;;5.50;99.90;;;;;;5002062;28;20449;-68
2021/03/15 09:53:29;;;;;;;0.80;0.40;;;5.40;99.90;;;;;;5001587;28;20409;-67
2021/03/15 09:56:01;;;;;;;0.60;0.45;;;5.70;99.90;;;;;;5002167;28;20404;-72
2021/03/15 09:58:27;;;;;;;0.40;0.30;;;5.90;99.90;;;;;;4999228;28;20484;-73
2021/03/15 10:00:54;;;;;;;0.70;0.40;;;5.60;99.90;;;;;;5000611;28;20466;-70
2021/03/15 10:03:22;;;;;;;0.80;0.50;;;6.10;99.90;;;;;;5000357;28;20421;-72
2021/03/15 10:05:53;;;;;;;0.70;0.40;;;5.70;99.90;;;;;;5002222;28;20471;-71
2021/03/15 10:08:18;;;;;;;0.50;0.35;;;5.60;99.90;;;;;;4998164;28;20412;-69
2021/03/15 10:10:46;;;;;;;0.40;0.30;;;5.60;99.90;;;;;;5000663;28;21237;-72
2021/03/15 10:13:12;;;;;;;0.50;0.40;;;5.40;99.90;;;;;;5001515;28;20455;-73
2021/03/15 10:15:39;;;;;;;1.50;0.50;;;5.60;99.90;;;;;;5001106;28;20889;-68
2021/03/15 10:18:06;;;;;;;0.60;0.40;;;5.60;99.90;;;;;;5012001;28;20435;-71
2021/03/15 10:20:39;;;;;;;0.70;0.50;;;5.50;99.90;;;;;;5000367;28;20921;-71
2021/03/15 10:23:16;;;;;;;0.70;0.50;;;5.40;99.90;;;;;;5016743;28;20416;-70
2021/03/15 10:26:03;;;;;;;0.75;0.60;;;5.80;99.90;;;;;;5000192;28;21187;-70
2021/03/15 10:28:30;;;;;;;1.00;0.50;;;5.30;99.90;;;;;;5012210;28;20416;-69
2021/03/15 10:30:56;;;;;;;0.60;0.50;;;5.60;99.90;;;;;;5002300;28;20393;-68
2021/03/15 10:33:23;;;;;;;0.52;0.50;;;5.40;99.90;;;;;;5000844;28;20397;-69
2021/03/15 10:35:50;;;;;;;0.60;0.60;;;4.90;99.90;;;;;;5000036;28;20482;-70
2021/03/15 10:38:18;;;;;;;1.90;0.70;;;5.00;99.90;;;;;;5013159;28;20507;-74
2021/03/15 10:40:45;;;;;;;1.37;0.60;;;5.50;99.90;;;;;;5002087;28;20422;-71
2021/03/15 10:43:18;;;;;;;0.80;0.70;;;5.60;99.90;;;;;;4999080;28;20420;-77
2021/03/15 10:45:44;;;;;;;0.77;0.52;;;4.90;99.90;;;;;;5000673;28;20388;-76
2021/03/15 10:48:10;;;;;;;1.70;0.77;;;4.80;99.90;;;;;;5014270;28;20877;-76
2021/03/15 10:50:42;;;;;;;0.50;0.40;;;4.90;99.90;;;;;;4999807;28;20389;-72
2021/03/15 10:53:16;;;;;;;0.70;0.60;;;5.00;99.90;;;;;;5016060;28;20440;-73
2021/03/15 10:55:42;;;;;;;1.00;0.60;;;5.80;99.90;;;;;;5002204;28;20472;-72
2021/03/15 10:58:12;;;;;;;0.90;0.60;;;5.20;99.90;;;;;;4999138;28;20755;-72
2021/03/15 11:00:43;;;;;;;0.95;0.70;;;6.00;99.90;;;;;;4999725;28;20404;-75
2021/03/15 11:03:21;;;;;;;0.93;0.50;;;6.00;99.90;;;;;;5001470;28;20913;-74
2021/03/15 11:05:46;;;;;;;0.70;0.50;;;5.20;99.90;;;;;;5001822;28;20845;-74
2021/03/15 11:08:19;;;;;;;0.90;0.60;;;6.00;99.90;;;;;;5013164;28;20401;-75
2021/03/15 11:10:47;;;;;;;1.10;0.70;;;6.30;99.90;;;;;;5014214;28;20612;-72
2021/03/15 11:13:20;;;;;;;1.05;0.50;;;5.80;99.90;;;;;;5001847;28;20460;-75
2021/03/15 11:15:46;;;;;;;1.80;0.50;;;5.80;99.90;;;;;;5000949;28;20388;-74
2021/03/15 11:18:21;;;;;;;1.10;0.60;;;5.30;99.90;;;;;;5011806;28;20865;-75
2021/03/15 11:20:58;;;;;;;1.52;0.60;;;5.30;99.90;;;;;;4999390;28;20408;-75
2021/03/15 11:23:53;;;;;;;0.60;0.50;;;6.30;99.90;;;;;;5001047;28;20459;-73
2021/03/15 11:26:19;;;;;;;1.80;0.80;;;6.50;99.90;;;;;;4999138;28;20474;-73
2021/03/15 11:28:47;;;;;;;0.87;0.70;;;5.50;99.90;;;;;;4999256;28;21156;-71
2021/03/15 11:31:22;;;;;;;1.52;0.80;;;6.30;99.90;;;;;;5000224;28;20442;-74
2021/03/15 11:33:59;;;;;;;1.20;0.80;;;7.30;99.90;;;;;;4998439;28;20392;-72
2021/03/15 11:36:31;;;;;;;1.05;0.70;;;6.90;99.90;;;;;;5000600;28;20999;-72
2021/03/15 11:38:57;;;;;;;1.40;0.70;;;6.60;99.90;;;;;;4999863;28;20911;-73
2021/03/15 11:41:27;;;;;;;1.10;0.70;;;6.40;99.90;;;;;;5000364;28;20393;-73
2021/03/15 11:43:54;;;;;;;0.70;0.65;;;6.60;99.90;;;;;;5002131;28;20676;-73
2021/03/15 11:46:21;;;;;;;1.00;0.70;;;7.70;99.90;;;;;;5001487;28;20379;-72
2021/03/15 11:48:47;;;;;;;1.00;0.70;;;6.80;99.90;;;;;;5000602;28;20715;-73
2021/03/15 11:51:16;;;;;;;0.80;0.60;;;7.00;99.90;;;;;;5004849;28;20416;-74
2021/03/15 11:53:45;;;;;;;0.88;0.80;;;7.60;99.90;;;;;;5005575;28;20391;-71
2021/03/15 11:56:12;;;;;;;0.80;0.60;;;7.70;99.90;;;;;;5004545;28;20442;-71
2021/03/15 11:58:38;;;;;;;0.75;0.65;;;8.10;99.90;;;;;;5005495;28;20881;-72
2021/03/15 12:01:05;;;;;;;0.68;0.68;;;8.10;99.90;;;;;;5013818;28;20381;-72
2021/03/15 12:03:31;;;;;;;0.70;0.50;;;9.20;99.90;;;;;;5013034;28;20495;-73
2021/03/15 12:05:57;;;;;;;1.60;0.80;;;8.80;99.90;;;;;;5013465;28;20861;-73
2021/03/15 12:08:23;;;;;;;0.90;0.80;;;8.70;99.90;;;;;;5012429;28;20384;-74
2021/03/15 12:10:48;;;;;;;0.75;0.60;;;8.00;99.90;;;;;;5013206;28;20389;-74
2021/03/15 12:13:14;;;;;;;0.75;0.60;;;8.50;99.90;;;;;;5013124;28;20717;-78
2021/03/15 12:15:41;;;;;;;0.80;0.70;;;8.20;99.90;;;;;;5027968;28;20408;-74
2021/03/15 12:18:07;;;;;;;1.20;0.80;;;7.80;99.90;;;;;;5028291;28;20898;-74
2021/03/15 12:20:35;;;;;;;2.90;0.80;;;8.00;99.90;;;;;;5012329;28;20499;-74
2021/03/15 12:23:01;;;;;;;1.50;0.80;;;8.10;99.90;;;;;;5013825;28;20412;-72
2021/03/15 12:25:48;;;;;;;0.88;0.82;;;8.50;99.90;;;;;;5012674;28;20389;-73
2021/03/15 12:28:15;;;;;;;0.60;0.60;;;8.20;99.90;;;;;;5028695;28;20420;-73
2021/03/15 12:30:57;;;;;;;1.10;0.90;;;8.70;99.90;;;;;;5012563;28;20400;-73
2021/03/15 12:33:23;;;;;;;0.80;0.77;;;9.20;99.90;;;;;;4992723;28;20409;-74
2021/03/15 12:35:48;;;;;;;0.98;0.88;;;9.00;99.90;;;;;;4993526;28;20866;-73
2021/03/15 12:38:15;;;;;;;2.10;0.80;;;9.60;99.90;;;;;;4993666;28;20787;-73
2021/03/15 12:40:41;;;;;;;0.73;0.70;;;9.60;99.90;;;;;;4993429;28;20535;-74
2021/03/15 12:43:06;;;;;;;1.07;0.80;;;9.60;99.90;;;;;;4993607;28;20496;-72
2021/03/15 12:45:32;;;;;;;0.97;0.80;;;9.10;99.90;;;;;;4992447;28;20654;-73
2021/03/15 12:47:58;;;;;;;1.67;0.70;;;8.80;99.90;;;;;;4993290;28;20383;-73
2021/03/15 12:50:23;;;;;;;1.43;0.73;;;8.70;99.90;;;;;;4993783;28;20477;-73
2021/03/15 12:52:49;;;;;;;0.50;0.50;;;8.60;99.90;;;;;;4993768;28;20386;-73
2021/03/15 12:55:15;;;;;;;1.70;0.60;;;8.60;99.90;;;;;;5008557;28;20402;-73
2021/03/15 12:57:41;;;;;;;0.75;0.75;;;8.90;99.90;;;;;;4993049;28;20406;-73
2021/03/15 13:00:07;;;;;;;1.30;0.93;;;9.60;99.90;;;;;;4993911;28;20839;-73
2021/03/15 13:02:33;;;;;;;0.80;0.60;;;8.20;99.90;;;;;;5008558;28;20395;-73
2021/03/15 13:04:59;;;;;;;0.90;0.70;;;8.20;99.90;;;;;;4994165;28;20783;-74
2021/03/15 13:07:25;;;;;;;1.10;1.00;;;8.90;99.90;;;;;;4993243;28;20386;-74
2021/03/15 13:09:50;;;;;;;1.00;0.90;;;8.00;99.90;;;;;;4993806;28;20418;-73
2021/03/15 13:12:16;;;;;;;1.90;0.90;;;8.50;99.90;;;;;;5026140;28;20414;-74
2021/03/15 13:14:43;;;;;;;1.13;1.02;;;7.80;99.90;;;;;;5032541;28;20394;-74